Aviation Digital Data Service (ADDS)

Output produced by METARs form (2249 UTC 02 August 2021)
found at http://www.aviationweather.gov/metar/data/
 
Forecast for: EDDL (DUESSELDORF , DE)
Text: TAF EDDL 021700Z 0218/0324 VRB03KT 9999 SCT040
Forecast period: 1800 UTC 02 August 2021 to 0000 UTC 04 August 2021
Forecast type: FROM: standard forecast or significant change
Winds: variable direction winds at 3 MPH (3 knots; 1.5 m/s)
Visibility: 6 or more miles (10+ km)
Ceiling: at least 12,000 feet AGL
Clouds: scattered clouds at 4000 feet AGL
Weather: no significant weather forecast for this period
Text: TEMPO 0311/0315 SHRA BKN020CB
Forecast period: 1100 to 1500 UTC 03 August 2021
Forecast type: TEMPORARY: The following changes expected for less than half the time period
Visibility: missing
Ceiling: 2000 feet AGL
Clouds: broken clouds at 2000 feet AGL
Weather: SHRA  (rain showers)